createdAt,value
2019-03-10T00:00:03.112Z,7.63
2019-03-10T00:02:30.009Z,7.10
2019-03-10T00:04:56.727Z,7.53
2019-03-10T00:07:23.454Z,8.43
2019-03-10T00:09:50.244Z,7.00
2019-03-10T00:12:16.968Z,8.60
2019-03-10T00:14:43.928Z,6.90
2019-03-10T00:17:10.625Z,7.20
2019-03-10T00:19:37.337Z,8.90
2019-03-10T00:22:05.257Z,7.13
2019-03-10T00:24:31.958Z,7.30
2019-03-10T00:26:58.686Z,9.03
2019-03-10T00:29:25.538Z,7.23
2019-03-10T00:31:52.262Z,7.40
2019-03-10T00:34:18.979Z,7.20
2019-03-10T00:36:45.800Z,6.70
2019-03-10T00:39:32.714Z,6.97
2019-03-10T00:42:27.461Z,7.00
2019-03-10T00:45:32.655Z,8.73
2019-03-10T00:48:24.800Z,7.23
2019-03-10T00:51:24.606Z,7.30
2019-03-10T00:53:51.468Z,7.40
2019-03-10T00:56:18.227Z,7.20
2019-03-10T00:58:44.966Z,7.53
2019-03-10T01:01:11.844Z,6.50
2019-03-10T01:03:38.589Z,6.27
2019-03-10T01:06:05.292Z,7.43
2019-03-10T01:08:32.416Z,6.37
2019-03-10T01:10:59.158Z,6.77
2019-03-10T01:13:26.009Z,7.17
2019-03-10T01:15:54.117Z,7.70
2019-03-10T01:18:22.739Z,7.10
2019-03-10T01:20:51.681Z,6.73
2019-03-10T01:23:18.569Z,6.87
2019-03-10T01:25:45.300Z,6.43
2019-03-10T01:28:12.017Z,6.77
2019-03-10T01:31:02.540Z,8.73
2019-03-10T01:34:06.589Z,6.90
2019-03-10T01:36:36.348Z,5.93
2019-03-10T01:39:04.283Z,7.90
2019-03-10T01:41:31.001Z,6.40
2019-03-10T01:43:57.798Z,6.27
2019-03-10T01:46:24.540Z,6.60
2019-03-10T01:48:51.296Z,6.10
2019-03-10T01:51:18.110Z,7.10
2019-03-10T01:53:44.816Z,6.83
2019-03-10T01:56:11.579Z,7.03
2019-03-10T01:58:38.346Z,6.17
2019-03-10T02:01:05.090Z,7.17
2019-03-10T02:03:32.016Z,9.00
2019-03-10T02:05:58.695Z,7.20
2019-03-10T02:08:25.457Z,6.87
2019-03-10T02:10:52.240Z,6.70
2019-03-10T02:13:18.999Z,6.13
2019-03-10T02:15:45.790Z,7.87
2019-03-10T02:18:12.561Z,6.87
2019-03-10T02:20:39.310Z,6.87
2019-03-10T02:23:06.162Z,7.77
2019-03-10T02:25:32.913Z,7.13
2019-03-10T02:27:59.623Z,7.47
2019-03-10T02:30:26.520Z,7.53
2019-03-10T02:32:53.281Z,6.17
2019-03-10T02:35:20.155Z,6.73
2019-03-10T02:37:46.882Z,7.00
2019-03-10T02:40:13.678Z,6.70
2019-03-10T02:42:40.497Z,6.97
2019-03-10T02:45:09.201Z,9.00
2019-03-10T02:47:35.942Z,7.50
2019-03-10T02:50:05.256Z,7.47
2019-03-10T02:52:31.981Z,6.87
2019-03-10T02:54:58.701Z,6.97
2019-03-10T02:57:25.469Z,7.30
2019-03-10T02:59:52.185Z,6.67
2019-03-10T03:02:18.966Z,6.20
2019-03-10T03:04:45.831Z,6.47
2019-03-10T03:07:12.569Z,6.23
2019-03-10T03:09:39.320Z,6.93
2019-03-10T03:12:06.095Z,8.27
2019-03-10T03:14:32.804Z,6.43
2019-03-10T03:16:59.849Z,6.17
2019-03-10T03:19:26.729Z,6.00
2019-03-10T03:21:53.443Z,6.20
2019-03-10T03:24:20.192Z,6.73
2019-03-10T03:26:46.986Z,6.63
2019-03-10T03:29:13.729Z,6.63
2019-03-10T03:31:40.531Z,6.70
2019-03-10T03:34:07.308Z,7.23
2019-03-10T03:36:35.165Z,6.67
2019-03-10T03:39:18.815Z,6.57
2019-03-10T03:41:45.557Z,8.20
2019-03-10T03:44:12.424Z,5.43
2019-03-10T03:46:39.131Z,6.43
2019-03-10T03:49:05.855Z,4.97
2019-03-10T03:51:32.642Z,6.00
2019-03-10T03:53:59.394Z,5.80
2019-03-10T03:56:26.178Z,7.30
2019-03-10T03:58:52.917Z,5.73
2019-03-10T04:01:19.698Z,5.97
2019-03-10T04:03:46.390Z,5.83
2019-03-10T04:06:13.271Z,5.07
2019-03-10T04:08:39.987Z,4.67
2019-03-10T04:11:06.721Z,5.27
2019-03-10T04:13:33.607Z,4.70
2019-03-10T04:16:00.332Z,4.60
2019-03-10T04:18:27.109Z,5.13
2019-03-10T04:20:53.899Z,4.40
2019-03-10T04:23:20.605Z,4.57
2019-03-10T04:25:47.347Z,5.23
2019-03-10T04:28:14.109Z,5.40
2019-03-10T04:30:40.843Z,4.20
2019-03-10T04:33:07.621Z,4.27
2019-03-10T04:35:34.469Z,4.60
2019-03-10T04:38:01.200Z,5.93
2019-03-10T04:40:28.092Z,5.27
2019-03-10T04:42:54.821Z,4.97
2019-03-10T04:45:21.531Z,4.77
2019-03-10T04:47:48.355Z,4.90
2019-03-10T04:50:16.417Z,5.20
2019-03-10T04:52:43.403Z,5.80
2019-03-10T04:55:10.205Z,5.80
2019-03-10T04:57:36.933Z,6.10
2019-03-10T05:00:06.358Z,5.50
2019-03-10T05:02:33.553Z,5.03
2019-03-10T05:05:00.474Z,6.03
2019-03-10T05:07:27.610Z,10.23
2019-03-10T05:09:54.337Z,6.33
2019-03-10T05:12:21.080Z,7.97
2019-03-10T05:14:47.987Z,8.77
2019-03-10T05:17:14.741Z,5.10
2019-03-10T05:19:41.614Z,5.40
2019-03-10T05:22:08.499Z,6.43
2019-03-10T05:24:35.285Z,6.83
2019-03-10T05:27:04.855Z,5.93
2019-03-10T05:29:31.710Z,8.40
2019-03-10T05:31:58.440Z,8.17
2019-03-10T05:34:25.177Z,9.20
2019-03-10T05:36:51.996Z,6.50
2019-03-10T05:39:18.718Z,5.87
2019-03-10T05:41:45.430Z,7.53
2019-03-10T05:44:12.227Z,8.93
2019-03-10T05:46:38.947Z,8.93
2019-03-10T05:49:05.802Z,8.70
2019-03-10T05:51:32.534Z,8.23
2019-03-10T05:53:59.273Z,13.17
2019-03-10T05:56:26.069Z,9.03
2019-03-10T05:58:52.791Z,7.17
2019-03-10T06:01:19.728Z,6.17
2019-03-10T06:03:46.514Z,6.23
2019-03-10T06:06:13.239Z,6.40
2019-03-10T06:08:40.105Z,7.97
2019-03-10T06:11:06.851Z,7.20
2019-03-10T06:13:33.579Z,7.03
2019-03-10T06:16:00.377Z,6.13
2019-03-10T06:18:27.123Z,6.03
2019-03-10T06:20:57.260Z,6.60
2019-03-10T06:23:24.122Z,7.60
2019-03-10T06:25:50.879Z,10.77
2019-03-10T06:28:17.624Z,12.40
2019-03-10T06:30:44.407Z,11.03
2019-03-10T06:33:11.159Z,9.97
2019-03-10T06:35:38.019Z,10.97
2019-03-10T06:38:04.801Z,12.50
2019-03-10T06:40:32.560Z,10.10
2019-03-10T06:42:59.573Z,9.80
2019-03-10T06:45:26.454Z,9.87
2019-03-10T06:47:53.181Z,13.17
2019-03-10T06:50:19.981Z,14.93
2019-03-10T06:52:46.700Z,11.27
2019-03-10T06:55:13.417Z,10.67
2019-03-10T06:57:40.209Z,11.23
2019-03-10T07:00:11.257Z,12.13
2019-03-10T07:02:39.161Z,11.60
2019-03-10T07:05:09.017Z,12.07
2019-03-10T07:07:35.779Z,10.53
2019-03-10T07:10:09.770Z,12.33
2019-03-10T07:12:36.492Z,10.47
2019-03-10T07:15:06.261Z,12.53
2019-03-10T07:17:33.157Z,6.83
2019-03-10T07:19:59.877Z,6.93
2019-03-10T07:22:26.695Z,7.60
2019-03-10T07:24:53.509Z,6.43
2019-03-10T07:27:20.266Z,9.23
2019-03-10T07:29:46.993Z,6.67
2019-03-10T07:32:13.794Z,9.10
2019-03-10T07:34:40.564Z,5.67
2019-03-10T07:37:07.267Z,4.57
2019-03-10T07:39:34.041Z,4.60
2019-03-10T07:42:00.776Z,5.83
2019-03-10T07:44:27.632Z,5.07
2019-03-10T07:46:54.340Z,5.27
2019-03-10T07:49:21.103Z,6.17
2019-03-10T07:51:48.013Z,12.17
2019-03-10T07:54:14.732Z,13.93
2019-03-10T07:56:41.462Z,12.90
2019-03-10T07:59:08.290Z,14.03
2019-03-10T08:01:35.055Z,12.63
2019-03-10T08:04:01.804Z,12.80
2019-03-10T08:06:28.595Z,11.70
2019-03-10T08:08:55.332Z,12.40
2019-03-10T08:11:22.085Z,13.03
2019-03-10T08:13:48.812Z,11.50
2019-03-10T08:16:15.629Z,11.40
2019-03-10T08:18:42.375Z,12.20
2019-03-10T08:21:09.190Z,13.60
2019-03-10T08:23:35.947Z,11.67
2019-03-10T08:26:02.866Z,12.87
2019-03-10T08:28:29.594Z,13.10
2019-03-10T08:30:56.306Z,11.20
2019-03-10T08:33:23.119Z,11.03
2019-03-10T08:35:49.851Z,12.50
2019-03-10T08:38:16.582Z,10.87
2019-03-10T08:40:43.408Z,11.37
2019-03-10T08:43:10.125Z,11.37
2019-03-10T08:45:36.870Z,11.63
2019-03-10T08:48:03.751Z,11.27
2019-03-10T08:50:30.513Z,11.03
2019-03-10T08:52:57.321Z,10.90
2019-03-10T08:55:24.177Z,11.43
2019-03-10T08:57:50.901Z,14.00
2019-03-10T09:00:17.719Z,11.90
2019-03-10T09:02:44.718Z,12.40
2019-03-10T09:05:11.565Z,12.30
2019-03-10T09:07:38.315Z,13.57
2019-03-10T09:10:08.708Z,17.57
2019-03-10T09:12:35.957Z,13.77
2019-03-10T09:15:05.185Z,15.73
2019-03-10T09:17:31.994Z,15.07
2019-03-10T09:19:58.735Z,15.40
2019-03-10T09:22:25.475Z,13.37
2019-03-10T09:24:52.394Z,14.63
2019-03-10T09:27:19.150Z,12.90
2019-03-10T09:29:45.906Z,14.50
2019-03-10T09:32:12.792Z,13.53
2019-03-10T09:34:39.580Z,15.03
2019-03-10T09:37:06.328Z,14.07
2019-03-10T09:39:33.100Z,17.83
2019-03-10T09:42:08.623Z,14.53
2019-03-10T09:44:35.574Z,15.57
2019-03-10T09:47:02.320Z,16.10
2019-03-10T09:49:29.211Z,15.80
2019-03-10T09:51:56.405Z,16.03
2019-03-10T09:54:23.487Z,15.67
2019-03-10T09:56:50.242Z,19.83
2019-03-10T09:59:17.004Z,16.17
2019-03-10T10:01:43.716Z,14.47
2019-03-10T10:04:10.618Z,18.30
2019-03-10T10:06:37.323Z,16.20
2019-03-10T10:09:05.946Z,16.73
2019-03-10T10:11:32.729Z,15.77
2019-03-10T10:13:59.471Z,18.27
2019-03-10T10:16:26.281Z,15.63
2019-03-10T10:18:53.039Z,19.00
2019-03-10T10:21:19.799Z,18.97
2019-03-10T10:23:46.658Z,18.43
2019-03-10T10:26:13.449Z,17.17
2019-03-10T10:28:40.326Z,16.43
2019-03-10T10:31:07.091Z,20.57
2019-03-10T10:33:33.836Z,15.27
2019-03-10T10:36:00.605Z,16.87
2019-03-10T10:38:27.404Z,19.17
2019-03-10T10:40:54.299Z,22.20
2019-03-10T10:43:21.031Z,20.23
2019-03-10T10:45:47.749Z,18.83
2019-03-10T10:48:14.568Z,21.50
2019-03-10T10:50:41.465Z,19.27
2019-03-10T10:53:08.277Z,19.87
2019-03-10T10:55:35.155Z,18.43
2019-03-10T10:58:02.013Z,20.27
2019-03-10T11:00:28.775Z,20.83
2019-03-10T11:02:55.502Z,21.83
2019-03-10T11:05:22.318Z,24.37
2019-03-10T11:07:49.068Z,22.77
2019-03-10T11:10:15.800Z,22.40
2019-03-10T11:12:42.596Z,25.07
2019-03-10T11:15:09.450Z,28.47
2019-03-10T11:17:36.189Z,20.07
2019-03-10T11:20:07.148Z,32.40
2019-03-10T11:22:33.914Z,25.77
2019-03-10T11:25:00.813Z,23.73
2019-03-10T11:27:27.695Z,22.20
2019-03-10T11:29:54.453Z,18.33
2019-03-10T11:32:21.172Z,21.47
2019-03-10T11:34:48.000Z,18.87
2019-03-10T11:37:14.734Z,18.37
2019-03-10T11:39:41.478Z,19.40
2019-03-10T11:42:08.310Z,23.83
2019-03-10T11:44:35.078Z,18.40
2019-03-10T11:47:01.818Z,18.57
2019-03-10T11:49:28.660Z,19.33
2019-03-10T11:51:55.400Z,23.27
2019-03-10T11:54:22.143Z,18.93
2019-03-10T11:56:49.025Z,23.77
2019-03-10T11:59:15.785Z,18.27
2019-03-10T12:01:42.517Z,18.93
2019-03-10T12:04:10.484Z,20.90
2019-03-10T12:06:37.362Z,33.63
2019-03-10T12:09:05.893Z,39.10
2019-03-10T12:11:32.647Z,26.50
2019-03-10T12:13:59.382Z,23.20
2019-03-10T12:16:26.171Z,19.33
2019-03-10T12:18:52.899Z,26.33
2019-03-10T12:21:19.653Z,37.27
2019-03-10T12:23:46.529Z,26.73
2019-03-10T12:26:13.434Z,26.50
2019-03-10T12:28:41.625Z,25.10
2019-03-10T12:31:08.661Z,18.67
2019-03-10T12:33:35.370Z,17.10
2019-03-10T12:36:02.127Z,16.40
2019-03-10T12:38:29.092Z,16.13
2019-03-10T12:40:55.882Z,17.50
2019-03-10T12:43:22.633Z,18.60
2019-03-10T12:45:49.446Z,15.17
2019-03-10T12:48:16.204Z,16.07
2019-03-10T12:50:42.933Z,16.70
2019-03-10T12:53:09.741Z,13.53
2019-03-10T12:55:36.522Z,16.30
2019-03-10T12:58:03.270Z,14.23
2019-03-10T13:00:30.177Z,13.53
2019-03-10T13:02:56.908Z,13.80
2019-03-10T13:05:23.832Z,13.23
2019-03-10T13:07:50.589Z,14.00
2019-03-10T13:10:17.317Z,12.77
2019-03-10T13:12:44.184Z,14.53
2019-03-10T13:15:11.744Z,13.53
2019-03-10T13:17:38.498Z,13.37
2019-03-10T13:20:09.309Z,16.47
2019-03-10T13:22:36.056Z,14.73
2019-03-10T13:25:09.068Z,16.00
2019-03-10T13:27:35.922Z,12.80
2019-03-10T13:30:12.277Z,14.47
2019-03-10T13:32:39.027Z,15.73
2019-03-10T13:35:05.870Z,15.70
2019-03-10T13:37:32.870Z,13.03
2019-03-10T13:39:59.594Z,12.33
2019-03-10T13:42:26.336Z,14.33
2019-03-10T13:44:53.077Z,14.60
2019-03-10T13:47:19.867Z,14.47
2019-03-10T13:49:46.776Z,13.57
2019-03-10T13:52:13.507Z,13.67
2019-03-10T13:54:40.262Z,15.67
2019-03-10T13:57:07.043Z,13.00
2019-03-10T13:59:33.800Z,16.40
2019-03-10T14:02:00.703Z,13.97
2019-03-10T14:04:27.456Z,15.43
2019-03-10T14:06:54.218Z,15.83
2019-03-10T14:09:21.101Z,19.97
2019-03-10T14:11:48.045Z,25.30
2019-03-10T14:14:14.793Z,16.73
2019-03-10T14:16:41.863Z,18.13
2019-03-10T14:19:08.763Z,16.90
2019-03-10T14:21:35.788Z,31.47
2019-03-10T14:24:03.051Z,16.87
2019-03-10T14:26:29.801Z,14.57
2019-03-10T14:28:56.866Z,15.60
2019-03-10T14:31:23.703Z,13.93
2019-03-10T14:33:50.857Z,14.80
2019-03-10T14:36:17.756Z,14.20
2019-03-10T14:38:44.650Z,15.33
2019-03-10T14:41:11.465Z,17.50
2019-03-10T14:43:38.380Z,17.27
2019-03-10T14:46:05.236Z,16.43
2019-03-10T14:48:32.245Z,17.80
2019-03-10T14:50:59.250Z,16.07
2019-03-10T14:53:26.043Z,16.87
2019-03-10T14:55:52.816Z,17.77
2019-03-10T14:58:19.724Z,17.33
2019-03-10T15:00:46.494Z,16.17
2019-03-10T15:03:13.248Z,18.17
2019-03-10T15:05:40.074Z,17.00
2019-03-10T15:08:06.916Z,13.50
2019-03-10T15:10:33.932Z,14.77
2019-03-10T15:13:00.812Z,14.70
2019-03-10T15:15:27.546Z,14.80
2019-03-10T15:17:54.317Z,15.10
2019-03-10T15:20:21.822Z,15.47
2019-03-10T15:22:48.734Z,16.00
2019-03-10T15:25:19.898Z,14.77
2019-03-10T15:27:46.769Z,14.90
2019-03-10T15:30:19.421Z,16.30
2019-03-10T15:32:46.279Z,17.70
2019-03-10T15:35:13.329Z,17.87
2019-03-10T15:37:40.081Z,15.83
2019-03-10T15:40:11.786Z,16.37
2019-03-10T15:42:38.536Z,18.33
2019-03-10T15:45:09.811Z,18.67
2019-03-10T15:47:36.687Z,19.60
2019-03-10T15:50:11.632Z,20.30
2019-03-10T15:52:38.374Z,17.77
2019-03-10T15:55:05.293Z,17.23
2019-03-10T15:57:32.034Z,20.83
2019-03-10T15:59:58.813Z,21.37
2019-03-10T16:02:25.650Z,17.83
2019-03-10T16:04:52.556Z,19.53
2019-03-10T16:07:20.438Z,17.07
2019-03-10T16:09:47.959Z,17.60
2019-03-10T16:12:15.064Z,17.03
2019-03-10T16:14:42.148Z,18.53
2019-03-10T16:17:09.230Z,26.20
2019-03-10T16:19:36.408Z,18.60
2019-03-10T16:22:03.823Z,21.23
2019-03-10T16:24:30.864Z,20.80
2019-03-10T16:26:58.007Z,24.80
2019-03-10T16:29:25.302Z,17.30
2019-03-10T16:31:52.553Z,18.87
2019-03-10T16:34:19.755Z,18.43
2019-03-10T16:36:47.022Z,20.83
2019-03-10T16:39:14.231Z,16.47
2019-03-10T16:41:41.280Z,19.67
2019-03-10T16:44:08.477Z,20.30
2019-03-10T16:46:35.660Z,19.13
2019-03-10T16:49:02.863Z,21.97
2019-03-10T16:51:29.882Z,19.63
2019-03-10T16:53:57.097Z,17.93
2019-03-10T16:56:24.316Z,24.23
2019-03-10T16:58:51.508Z,16.97
2019-03-10T17:01:18.703Z,14.93
2019-03-10T17:03:45.989Z,23.63
2019-03-10T17:06:13.179Z,16.97
2019-03-10T17:08:40.304Z,19.23
2019-03-10T17:11:07.564Z,17.03
2019-03-10T17:13:34.743Z,17.90
2019-03-10T17:16:01.902Z,15.73
2019-03-10T17:18:29.148Z,16.93
2019-03-10T17:20:56.284Z,15.90
2019-03-10T17:23:23.326Z,17.40
2019-03-10T17:25:50.414Z,22.03
2019-03-10T17:28:17.554Z,19.23
2019-03-10T17:30:44.823Z,27.83
2019-03-10T17:33:12.007Z,19.90
2019-03-10T17:35:39.441Z,22.47
2019-03-10T17:38:06.421Z,23.17
2019-03-10T17:40:33.578Z,21.10
2019-03-10T17:43:00.707Z,28.63
2019-03-10T17:45:27.977Z,24.43
2019-03-10T17:47:55.122Z,22.37
2019-03-10T17:50:22.571Z,24.13
2019-03-10T17:52:49.686Z,23.37
2019-03-10T17:55:22.017Z,19.50
2019-03-10T17:57:49.562Z,19.87
2019-03-10T18:00:18.182Z,22.10
2019-03-10T18:02:45.901Z,20.80
2019-03-10T18:05:12.863Z,22.50
2019-03-10T18:07:39.587Z,22.77
2019-03-10T18:10:16.463Z,20.30
2019-03-10T18:12:43.365Z,22.53
2019-03-10T18:15:13.246Z,22.23
2019-03-10T18:17:40.165Z,22.47
2019-03-10T18:20:17.524Z,22.50
2019-03-10T18:22:44.462Z,23.27
2019-03-10T18:25:12.159Z,20.90
2019-03-10T18:27:39.008Z,24.27
2019-03-10T18:30:14.266Z,22.27
2019-03-10T18:32:44.615Z,24.53
2019-03-10T18:35:11.455Z,22.23
2019-03-10T18:37:38.378Z,21.00
2019-03-10T18:40:23.085Z,20.60
2019-03-10T18:42:49.910Z,22.10
2019-03-10T18:45:18.487Z,20.87
2019-03-10T18:47:45.337Z,22.40
2019-03-10T18:50:15.540Z,21.40
2019-03-10T18:52:42.809Z,20.07
2019-03-10T18:55:12.809Z,21.77
2019-03-10T18:57:39.733Z,21.23
2019-03-10T19:00:26.894Z,24.10
2019-03-10T19:02:53.772Z,19.70
2019-03-10T19:05:20.951Z,22.40
2019-03-10T19:07:47.781Z,26.97
2019-03-10T19:10:14.535Z,20.33
2019-03-10T19:12:41.416Z,26.73
2019-03-10T19:15:15.616Z,23.60
2019-03-10T19:17:42.487Z,21.37
2019-03-10T19:20:12.441Z,23.20
2019-03-10T19:22:39.341Z,19.43
2019-03-10T19:25:12.179Z,20.73
2019-03-10T19:27:38.949Z,21.93
2019-03-10T19:30:23.524Z,19.10
2019-03-10T19:32:50.685Z,22.57
2019-03-10T19:35:17.671Z,23.07
2019-03-10T19:37:44.580Z,20.30
2019-03-10T19:40:19.669Z,21.27
2019-03-10T19:42:46.438Z,21.73
2019-03-10T19:45:21.111Z,19.20
2019-03-10T19:47:48.180Z,20.13
2019-03-10T19:50:26.874Z,24.37
2019-03-10T19:52:52.749Z,19.73
2019-03-10T19:55:21.744Z,20.40
2019-03-10T19:57:48.539Z,19.10
2019-03-10T20:00:20.693Z,19.30
2019-03-10T20:02:47.549Z,15.73
2019-03-10T20:05:14.546Z,15.07
2019-03-10T20:07:42.037Z,15.90
2019-03-10T20:10:16.831Z,14.93
2019-03-10T20:12:43.520Z,15.70
2019-03-10T20:15:14.247Z,15.73
2019-03-10T20:17:41.031Z,17.30
2019-03-10T20:20:14.891Z,16.37
2019-03-10T20:22:41.812Z,14.53
2019-03-10T20:25:11.569Z,13.60
2019-03-10T20:27:38.394Z,13.57
2019-03-10T20:30:16.887Z,14.37
2019-03-10T20:32:43.654Z,14.83
2019-03-10T20:35:10.556Z,19.97
2019-03-10T20:37:37.332Z,13.57
2019-03-10T20:40:16.809Z,13.70
2019-03-10T20:42:43.645Z,15.77
2019-03-10T20:45:10.688Z,17.93
2019-03-10T20:47:37.392Z,13.27
2019-03-10T20:50:14.795Z,13.53
2019-03-10T20:52:41.499Z,15.50
2019-03-10T20:55:10.306Z,12.00
2019-03-10T20:57:37.083Z,12.97
2019-03-10T21:00:17.389Z,14.40
2019-03-10T21:02:44.337Z,17.07
2019-03-10T21:05:11.293Z,14.97
2019-03-10T21:07:38.078Z,15.43
2019-03-10T21:10:13.145Z,14.03
2019-03-10T21:12:42.739Z,12.53
2019-03-10T21:15:17.569Z,13.90
2019-03-10T21:17:44.526Z,13.00
2019-03-10T21:20:15.167Z,14.83
2019-03-10T21:22:41.999Z,12.73
2019-03-10T21:25:15.753Z,13.67
2019-03-10T21:27:42.902Z,14.53
2019-03-10T21:30:14.006Z,12.63
2019-03-10T21:32:40.757Z,15.47
2019-03-10T21:35:17.173Z,13.93
2019-03-10T21:37:36.252Z,13.60
2019-03-10T21:40:11.553Z,11.83
2019-03-10T21:42:38.256Z,12.07
2019-03-10T21:45:07.964Z,15.03
2019-03-10T21:47:34.735Z,12.73
2019-03-10T21:50:01.759Z,11.40
2019-03-10T21:52:28.484Z,11.53
2019-03-10T21:54:55.376Z,9.60
2019-03-10T21:57:22.113Z,10.23
2019-03-10T21:59:48.829Z,10.03
2019-03-10T22:02:15.584Z,12.07
2019-03-10T22:04:42.383Z,16.47
2019-03-10T22:07:09.225Z,10.70
2019-03-10T22:09:35.937Z,11.53
2019-03-10T22:12:02.651Z,12.23
2019-03-10T22:14:29.526Z,11.07
2019-03-10T22:16:56.290Z,10.87
2019-03-10T22:19:23.197Z,12.00
2019-03-10T22:21:50.021Z,11.33
2019-03-10T22:24:16.747Z,12.57
2019-03-10T22:26:43.473Z,12.40
2019-03-10T22:29:10.264Z,10.03
2019-03-10T22:31:36.981Z,11.70
2019-03-10T22:34:03.713Z,10.03
2019-03-10T22:36:30.631Z,10.20
2019-03-10T22:38:57.392Z,11.07
2019-03-10T22:41:24.093Z,10.97
2019-03-10T22:43:50.955Z,13.83
2019-03-10T22:46:17.701Z,13.70
2019-03-10T22:48:44.421Z,11.07
2019-03-10T22:51:11.162Z,13.63
2019-03-10T22:53:37.902Z,12.13
2019-03-10T22:56:04.801Z,12.13
2019-03-10T22:58:31.511Z,9.87
2019-03-10T23:00:58.249Z,11.10
2019-03-10T23:03:25.106Z,10.40
2019-03-10T23:05:51.861Z,10.77
2019-03-10T23:08:18.578Z,15.63
2019-03-10T23:10:45.405Z,13.67
2019-03-10T23:13:12.147Z,13.57
2019-03-10T23:15:38.889Z,15.03
2019-03-10T23:18:05.679Z,14.27
2019-03-10T23:20:32.420Z,14.23
2019-03-10T23:22:59.142Z,15.27
2019-03-10T23:25:25.939Z,13.93
2019-03-10T23:27:52.741Z,15.17
2019-03-10T23:30:19.548Z,13.10
2019-03-10T23:32:46.291Z,12.70
2019-03-10T23:35:13.107Z,13.10
2019-03-10T23:37:40.032Z,11.10
2019-03-10T23:40:13.602Z,9.97
2019-03-10T23:42:40.436Z,8.40
2019-03-10T23:45:14.158Z,8.93
2019-03-10T23:47:40.899Z,9.63
2019-03-10T23:50:16.245Z,9.03
2019-03-10T23:52:42.985Z,11.10
2019-03-10T23:55:11.651Z,10.10
2019-03-10T23:57:38.543Z,6.77
